York, New York
Current Conditions -  °F | °C
As of 3:54 AM on Thursday 18 Dec 2014 (Local Time) from KROC Reporting Station
Overcast Overcast  
Wind Chill: 19°   Ceiling: 3400
Heat Index: 31°   Visibility: 10mi
Dew Point: 25°   Wind: 20mph
Humidity: 79%   Direction: 260°W
Pressure: 30"   Gusts: 24mph
Location:  42.87°N, 77.89°W
Report Text: KROC 180854Z 26017G21KT 10SM FEW020 OVC034 M01/M04 A3000 RMK AO2 SLP166 60000 T10061039 50011
Loading
Personal Weather Stations






























Interactive Weather Map New forecast layout! Learn more

10-Day Weather Forecast

Advertisements
Track Severe Weather on mobile